Time;durP1;ratioP1;P1;durP2;ratioP2;P2;SDS_P1;SDS_P2;PMS_P1;PMS_P2;Temp;Humidity;BMP_temperature;BMP_pressure;BME280_temperature;BME280_humidity;BME280_pressure;Samples;Min_cycle;Max_cycle;Signal;HPM_P1;HPM_P2
2022/04/27 00:02:31;;;;;;;;;;;;;;;9.63;47.71;97116.56;6372731;27;19924;-64
2022/04/27 00:05:33;;;;;;;;;;;;;;;9.61;47.60;97121.91;6371298;27;20385;-63
2022/04/27 00:08:34;;;;;;;;;;;;;;;9.50;47.84;97111.16;6372246;27;19930;-63
2022/04/27 00:11:35;;;;;;;;;;;;;;;9.52;47.95;97116.34;6371658;27;19923;-64
2022/04/27 00:14:37;;;;;;;;;;;;;;;9.41;48.07;97119.56;6372033;27;19923;-64
2022/04/27 00:17:41;;;;;;;;;;;;;;;9.42;48.03;97122.09;6372391;27;19930;-63
2022/04/27 00:20:42;;;;;;;;;;;;;;;9.67;47.54;97116.28;6372149;27;19923;-64
2022/04/27 00:23:45;;;;;;;;;;;;;;;9.80;47.00;97121.69;6372300;27;20018;-63
2022/04/27 00:26:48;;;;;;;;;;;;;;;9.77;47.11;97111.38;6372196;27;19923;-63
2022/04/27 00:29:51;;;;;;;;;;;;;;;9.83;47.00;97113.63;6371128;27;19930;-64
2022/04/27 00:32:52;;;;;;;;;;;;;;;9.84;47.03;97110.06;6372047;27;20446;-64
2022/04/27 00:35:53;;;;;;;;;;;;;;;9.96;46.79;97115.53;6371581;27;20299;-64
2022/04/27 00:38:56;;;;;;;;;;;;;;;10.03;46.39;97111.63;6370920;27;19923;-63
2022/04/27 00:42:11;;;;;;;;;;;;;;;9.99;46.38;97105.72;6371920;27;19923;-64
2022/04/27 00:45:12;;;;;;;;;;;;;;;10.14;46.09;97103.97;6371403;27;20431;-63
2022/04/27 00:48:13;;;;;;;;;;;;;;;10.40;45.38;97101.59;6370897;27;19924;-64
2022/04/27 00:51:16;;;;;;;;;;;;;;;10.37;45.40;97096.50;6370399;27;19946;-64
2022/04/27 00:54:22;;;;;;;;;;;;;;;10.45;45.33;97104.78;6371849;28;19923;-63
2022/04/27 00:57:26;;;;;;;;;;;;;;;10.64;44.82;97102.69;6371584;28;20312;-64
2022/04/27 01:00:27;;;;;;;;;;;;;;;10.68;44.66;97101.59;6370966;28;20223;-64
2022/04/27 01:03:28;;;;;;;;;;;;;;;10.78;44.37;97099.22;6352448;28;19923;-63
2022/04/27 01:06:30;;;;;;;;;;;;;;;10.92;44.06;97101.00;6370618;28;20022;-63
2022/04/27 01:09:36;;;;;;;;;;;;;;;10.95;44.01;97101.63;6371705;28;20396;-64
2022/04/27 01:12:39;;;;;;;;;;;;;;;11.01;43.91;97100.41;6371727;28;20076;-64
2022/04/27 01:15:43;;;;;;;;;;;;;;;10.97;44.14;97106.81;6370638;28;19968;-64
2022/04/27 01:18:50;;;;;;;;;;;;;;;11.08;43.83;97107.00;6371593;28;19967;-64
2022/04/27 01:21:54;;;;;;;;;;;;;;;11.12;44.03;97110.28;6371272;28;19928;-64
2022/04/27 01:24:57;;;;;;;;;;;;;;;11.19;43.81;97112.44;6370892;28;20064;-64
2022/04/27 01:27:58;;;;;;;;;;;;;;;11.23;43.78;97119.19;6373094;27;19993;-64
2022/04/27 01:31:02;;;;;;;;;;;;;;;11.20;44.04;97111.47;6375343;27;19923;-65
2022/04/27 01:34:05;;;;;;;;;;;;;;;11.21;43.96;97117.63;6376207;27;19923;-64
2022/04/27 01:40:28;;;;;;;;;;;;;;;11.20;44.08;97115.91;6375384;27;19924;-64
2022/04/27 01:43:29;;;;;;;;;;;;;;;11.17;44.17;97127.47;6375548;27;20018;-64
2022/04/27 01:46:31;;;;;;;;;;;;;;;11.33;44.00;97132.63;6375067;27;19930;-63
2022/04/27 01:49:34;;;;;;;;;;;;;;;11.46;43.88;97137.94;6375576;27;19923;-64
2022/04/27 01:55:57;;;;;;;;;;;;;;;11.43;44.01;97122.34;6375932;27;20315;-64
2022/04/27 01:58:58;;;;;;;;;;;;;;;11.33;44.39;97131.78;6375612;27;19923;-64
2022/04/27 02:02:03;;;;;;;;;;;;;;;11.36;44.75;97123.69;6357045;27;19923;-64
2022/04/27 02:05:04;;;;;;;;;;;;;;;11.11;45.14;97129.66;6374443;27;19928;-64
2022/04/27 02:08:07;;;;;;;;;;;;;;;11.16;45.33;97120.53;6375078;27;20361;-64
2022/04/27 02:11:08;;;;;;;;;;;;;;;11.22;45.20;97120.13;6375288;27;20443;-63
2022/04/27 02:14:15;;;;;;;;;;;;;;;11.22;45.26;97120.13;6375234;27;19963;-65
2022/04/27 02:17:16;;;;;;;;;;;;;;;11.36;45.32;97121.06;6374305;27;20016;-64
2022/04/27 02:20:22;;;;;;;;;;;;;;;11.41;45.14;97126.88;6373867;27;19980;-64
2022/04/27 02:23:25;;;;;;;;;;;;;;;11.34;45.42;97129.03;6375043;27;19923;-64
2022/04/27 02:26:32;;;;;;;;;;;;;;;11.38;45.38;97125.28;6375001;27;19928;-63
2022/04/27 02:29:34;;;;;;;;;;;;;;;11.42;45.45;97125.91;6374184;27;20344;-64
2022/04/27 02:32:35;;;;;;;;;;;;;;;11.57;45.36;97138.09;6374089;27;19991;-64
2022/04/27 02:35:36;;;;;;;;;;;;;;;11.60;45.28;97124.72;6356452;27;19946;-64
2022/04/27 02:38:37;;;;;;;;;;;;;;;11.75;45.31;97132.56;6356017;27;19976;-67
2022/04/27 02:41:41;;;;;;;;;;;;;;;11.93;45.16;97123.50;6374269;27;19923;-65
2022/04/27 02:44:44;;;;;;;;;;;;;;;12.00;45.00;97126.56;6374369;27;19927;-64
2022/04/27 02:47:48;;;;;;;;;;;;;;;12.23;44.92;97122.38;6374561;27;19919;-64
2022/04/27 02:54:13;;;;;;;;;;;;;;;12.64;44.41;97127.47;6373320;27;19926;-64
2022/04/27 02:57:17;;;;;;;;;;;;;;;12.85;44.27;97119.88;6372958;27;19923;-64
2022/04/27 03:00:21;;;;;;;;;;;;;;;13.11;43.28;97125.13;6373563;27;20345;-62
2022/04/27 03:03:25;;;;;;;;;;;;;;;13.25;42.83;97122.34;6373841;27;19929;-64
2022/04/27 03:06:28;;;;;;;;;;;;;;;13.38;42.33;97117.88;6373707;27;19988;-64
2022/04/27 03:09:29;;;;;;;;;;;;;;;13.69;41.67;97123.56;6372790;27;20016;-64
2022/04/27 03:12:34;;;;;;;;;;;;;;;13.96;41.07;97117.22;6373708;27;19923;-64
2022/04/27 03:15:35;;;;;;;;;;;;;;;14.08;40.54;97105.69;6373686;27;19923;-65
2022/04/27 03:18:39;;;;;;;;;;;;;;;14.14;40.49;97105.22;6373666;27;20380;-65
2022/04/27 03:21:42;;;;;;;;;;;;;;;14.20;40.15;97099.47;6373532;27;20396;-64
2022/04/27 03:24:45;;;;;;;;;;;;;;;14.19;40.22;97097.81;6373456;27;19923;-64
2022/04/27 03:27:49;;;;;;;;;;;;;;;14.13;40.43;97095.63;6373430;27;19976;-64
2022/04/27 03:30:52;;;;;;;;;;;;;;;14.22;40.35;97096.72;6372438;27;19923;-64
2022/04/27 03:33:53;;;;;;;;;;;;;;;14.19;40.51;97092.50;6372676;27;20408;-64
2022/04/27 03:36:54;;;;;;;;;;;;;;;14.42;40.12;97089.91;6372407;27;19927;-64
2022/04/27 03:39:58;;;;;;;;;;;;;;;14.61;39.77;97076.97;6373026;27;19923;-64
2022/04/27 03:42:59;;;;;;;;;;;;;;;14.73;39.82;97086.59;6372362;27;19927;-64
2022/04/27 03:46:02;;;;;;;;;;;;;;;14.87;39.34;97087.31;6354678;27;19923;-64
2022/04/27 03:49:06;;;;;;;;;;;;;;;15.01;38.93;97087.91;6372031;27;19923;-64
2022/04/27 03:52:09;;;;;;;;;;;;;;;15.07;39.00;97094.53;6372306;27;19923;-64
2022/04/27 03:55:11;;;;;;;;;;;;;;;15.13;39.06;97083.44;6371593;27;19930;-64
2022/04/27 03:58:14;;;;;;;;;;;;;;;15.38;38.82;97094.72;6372391;27;19923;-64
2022/04/27 04:01:15;;;;;;;;;;;;;;;15.59;37.98;97074.41;6353703;27;19923;-64
2022/04/27 04:04:16;;;;;;;;;;;;;;;15.93;36.36;97076.97;6353000;27;19984;-66
2022/04/27 04:07:17;;;;;;;;;;;;;;;16.17;35.36;97076.72;6371281;27;19930;-64
2022/04/27 04:10:18;;;;;;;;;;;;;;;16.47;34.31;97070.59;6371340;27;20355;-64
2022/04/27 04:13:20;;;;;;;;;;;;;;;16.80;33.69;97082.84;6354224;27;19965;-64
2022/04/27 04:16:26;;;;;;;;;;;;;;;16.93;33.58;97069.34;6372589;27;19919;-64
2022/04/27 04:19:29;;;;;;;;;;;;;;;17.13;33.42;97085.38;6371090;27;19924;-65
2022/04/27 04:22:30;;;;;;;;;;;;;;;17.30;33.47;97068.75;6371082;27;19929;-64
2022/04/27 04:28:53;;;;;;;;;;;;;;;18.12;31.28;97065.75;6371121;27;20069;-64
2022/04/27 04:31:54;;;;;;;;;;;;;;;18.61;30.59;97078.97;6371356;27;19923;-65
2022/04/27 04:34:57;;;;;;;;;;;;;;;19.27;29.60;97078.88;6352762;27;19930;-63
2022/04/27 04:38:00;;;;;;;;;;;;;;;19.41;29.25;97084.69;6371734;27;20330;-64
2022/04/27 04:41:01;;;;;;;;;;;;;;;19.50;28.80;97089.13;6371346;27;19923;-66
2022/04/27 04:44:02;;;;;;;;;;;;;;;19.48;28.90;97077.78;6371031;27;19923;-64
2022/04/27 04:47:04;;;;;;;;;;;;;;;19.66;28.56;97067.16;6371656;27;19959;-64
2022/04/27 04:50:05;;;;;;;;;;;;;;;19.70;28.75;97090.75;6371164;27;19930;-64
2022/04/27 04:53:09;;;;;;;;;;;;;;;21.29;26.72;97083.53;6370499;27;19923;-64
2022/04/27 04:56:10;;;;;;;;;;;;;;;21.39;26.44;97094.97;6370734;27;19923;-64
2022/04/27 04:59:11;;;;;;;;;;;;;;;20.90;27.07;97089.38;6371313;28;19930;-64
2022/04/27 05:02:12;;;;;;;;;;;;;;;21.04;26.85;97086.09;6371943;27;20344;-65
2022/04/27 05:05:13;;;;;;;;;;;;;;;21.58;26.51;97090.34;6376594;27;19927;-64
2022/04/27 05:08:14;;;;;;;;;;;;;;;21.77;25.86;97081.16;6375332;27;20387;-64
2022/04/27 05:11:18;;;;;;;;;;;;;;;22.27;25.04;97077.56;6376761;27;19924;-65
2022/04/27 05:14:19;;;;;;;;;;;;;;;24.80;22.55;97083.59;6376677;27;20030;-64
2022/04/27 05:17:21;;;;;;;;;;;;;;;25.73;20.52;97093.78;6375915;27;19923;-64
2022/04/27 05:20:24;;;;;;;;;;;;;;;27.41;18.99;97115.84;6376043;27;19976;-64
2022/04/27 05:23:25;;;;;;;;;;;;;;;26.75;19.05;97091.88;6375761;27;19924;-64
2022/04/27 05:26:29;;;;;;;;;;;;;;;26.17;19.98;97092.00;6376321;27;20316;-65
2022/04/27 05:32:51;;;;;;;;;;;;;;;24.84;21.07;97114.50;6357674;27;19945;-64
2022/04/27 05:35:53;;;;;;;;;;;;;;;24.24;21.84;97088.44;6375724;27;20309;-65
2022/04/27 05:38:53;;;;;;;;;;;;;;;24.75;21.82;97102.16;6375524;27;20016;-65
2022/04/27 05:41:55;;;;;;;;;;;;;;;26.15;20.18;97107.53;6374988;27;20393;-64
2022/04/27 05:44:57;;;;;;;;;;;;;;;27.26;19.50;97092.47;6374895;27;20388;-65
2022/04/27 05:47:58;;;;;;;;;;;;;;;28.78;17.93;97101.22;6375071;27;20292;-65
2022/04/27 05:51:01;;;;;;;;;;;;;;;29.06;17.17;97099.13;6375023;27;19928;-66
2022/04/27 05:54:02;;;;;;;;;;;;;;;30.37;16.11;97117.00;6374638;27;19919;-64
2022/04/27 05:57:05;;;;;;;;;;;;;;;29.78;16.16;97112.72;6375552;27;19923;-65
2022/04/27 06:00:07;;;;;;;;;;;;;;;27.86;18.12;97097.34;6374513;27;19968;-65
2022/04/27 06:03:09;;;;;;;;;;;;;;;26.71;19.14;97110.34;6374450;27;19923;-64
2022/04/27 06:06:13;;;;;;;;;;;;;;;25.82;20.49;97110.69;6375298;27;19924;-65
2022/04/27 06:09:17;;;;;;;;;;;;;;;24.76;21.58;97099.25;6374746;27;19923;-65
2022/04/27 06:12:23;;;;;;;;;;;;;;;23.88;22.46;97094.41;6374817;27;20387;-65
2022/04/27 06:15:26;;;;;;;;;;;;;;;22.86;23.58;97108.50;6374267;27;19927;-65
2022/04/27 06:18:30;;;;;;;;;;;;;;;22.23;24.46;97103.88;6375080;27;20312;-64
2022/04/27 06:21:33;;;;;;;;;;;;;;;21.62;26.41;97108.59;6374642;27;19923;-64
2022/04/27 06:24:35;;;;;;;;;;;;;;;20.96;26.94;97098.59;6375009;27;19923;-64
2022/04/27 06:27:39;;;;;;;;;;;;;;;20.78;27.44;97117.38;6374952;27;19923;-65
2022/04/27 06:30:40;;;;;;;;;;;;;;;20.31;28.43;97109.66;6374239;27;19930;-65
2022/04/27 06:33:44;;;;;;;;;;;;;;;19.82;29.07;97125.22;6374754;27;19923;-64
2022/04/27 06:36:47;;;;;;;;;;;;;;;19.54;29.83;97117.22;6374781;27;20379;-65
2022/04/27 06:39:51;;;;;;;;;;;;;;;19.09;31.35;97107.34;6374821;27;19923;-64
2022/04/27 06:42:53;;;;;;;;;;;;;;;19.05;31.26;97112.13;6373820;27;19923;-64
2022/04/27 06:45:59;;;;;;;;;;;;;;;18.91;31.36;97103.75;6373836;27;19924;-63
2022/04/27 06:49:00;;;;;;;;;;;;;;;19.10;30.83;97113.50;6373790;27;20406;-64
2022/04/27 06:52:03;;;;;;;;;;;;;;;19.07;30.72;97098.63;6374341;27;19923;-64
2022/04/27 06:55:08;;;;;;;;;;;;;;;19.02;30.58;97098.22;6373436;27;19930;-65
2022/04/27 06:58:09;;;;;;;;;;;;;;;18.87;31.24;97137.03;6373408;27;19927;-64
2022/04/27 07:01:13;;;;;;;;;;;;;;;18.82;31.92;97114.31;6373225;27;19930;-64
2022/04/27 07:04:14;;;;;;;;;;;;;;;18.46;32.71;97099.91;6372715;27;19930;-64
2022/04/27 07:07:18;;;;;;;;;;;;;;;18.56;31.92;97132.69;6354634;27;19927;-65
2022/04/27 07:10:19;;;;;;;;;;;;;;;18.72;32.05;97136.63;6373455;27;19924;-64
2022/04/27 07:13:23;;;;;;;;;;;;;;;18.79;32.78;97140.41;6354876;27;19924;-64
2022/04/27 07:16:26;;;;;;;;;;;;;;;18.56;33.69;97169.16;6372891;27;19930;-64
2022/04/27 07:19:27;;;;;;;;;;;;;;;18.31;36.22;97160.75;6372944;27;19931;-64
2022/04/27 07:22:28;;;;;;;;;;;;;;;18.18;39.64;97173.53;6373433;27;20139;-65
2022/04/27 07:25:32;;;;;;;;;;;;;;;17.25;45.35;97164.06;6372784;27;19978;-63
2022/04/27 07:28:38;;;;;;;;;;;;;;;16.25;50.38;97179.63;6372297;27;19972;-64
2022/04/27 07:31:39;;;;;;;;;;;;;;;15.29;54.02;97167.06;6372661;27;20067;-64
2022/04/27 07:34:45;;;;;;;;;;;;;;;14.78;57.17;97155.94;6373475;27;20013;-64
2022/04/27 07:37:50;;;;;;;;;;;;;;;14.64;58.28;97135.00;6373378;27;20010;-65
2022/04/27 07:40:51;;;;;;;;;;;;;;;14.46;58.52;97113.38;6354261;27;20392;-64
2022/04/27 07:43:55;;;;;;;;;;;;;;;14.30;58.90;97142.81;6372809;27;19923;-65
2022/04/27 07:46:56;;;;;;;;;;;;;;;14.36;58.42;97136.22;6353918;27;20327;-64
2022/04/27 07:49:57;;;;;;;;;;;;;;;14.54;57.71;97118.94;6372541;27;19923;-64
2022/04/27 07:53:03;;;;;;;;;;;;;;;15.21;55.59;97120.78;6372227;27;19929;-64
2022/04/27 07:56:07;;;;;;;;;;;;;;;15.57;54.80;97116.16;6372821;27;19923;-64
2022/04/27 07:59:08;;;;;;;;;;;;;;;15.98;54.13;97101.31;6372038;27;19923;-64
2022/04/27 08:02:09;;;;;;;;;;;;;;;16.46;53.21;97119.41;6371105;27;19927;-63
2022/04/27 08:05:10;;;;;;;;;;;;;;;16.81;52.26;97107.59;6371911;27;20014;-63
2022/04/27 08:08:17;;;;;;;;;;;;;;;16.88;52.06;97108.75;6372327;27;19923;-65
2022/04/27 08:11:22;;;;;;;;;;;;;;;16.98;52.36;97125.56;6371667;27;19923;-63
2022/04/27 08:14:23;;;;;;;;;;;;;;;17.03;52.06;97128.69;6371655;27;19919;-64
2022/04/27 08:17:24;;;;;;;;;;;;;;;17.29;50.88;97141.53;6370926;27;19924;-64
2022/04/27 08:23:50;;;;;;;;;;;;;;;17.74;48.84;97125.09;6371336;27;19928;-64
2022/04/27 08:26:52;;;;;;;;;;;;;;;17.76;48.48;97123.16;6371207;27;20319;-66
2022/04/27 08:29:55;;;;;;;;;;;;;;;17.74;48.26;97120.63;6372490;27;19923;-67
2022/04/27 08:33:00;;;;;;;;;;;;;;;17.77;47.70;97131.97;6353355;27;19930;-65
2022/04/27 08:36:03;;;;;;;;;;;;;;;17.96;46.96;97134.69;6353420;27;20004;-65
2022/04/27 08:39:04;;;;;;;;;;;;;;;17.64;47.31;97126.94;6371232;27;19923;-64
2022/04/27 08:42:09;;;;;;;;;;;;;;;17.86;46.49;97132.03;6371645;27;19923;-64
2022/04/27 08:45:13;;;;;;;;;;;;;;;17.89;46.49;97134.44;6353899;27;20305;-64
2022/04/27 08:48:16;;;;;;;;;;;;;;;18.31;44.94;97139.47;6370891;27;20015;-64
2022/04/27 08:51:17;;;;;;;;;;;;;;;19.29;41.96;97140.94;6370772;27;20285;-64
2022/04/27 08:54:18;;;;;;;;;;;;;;;19.90;40.63;97143.97;6371667;27;20304;-65
2022/04/27 08:57:24;;;;;;;;;;;;;;;20.00;40.05;97143.94;6371574;28;19923;-64
2022/04/27 09:00:27;;;;;;;;;;;;;;;20.07;39.90;97145.84;6352790;28;20444;-67
2022/04/27 09:03:36;;;;;;;;;;;;;;;20.00;39.80;97138.59;6370583;28;20385;-63
2022/04/27 09:06:39;;;;;;;;;;;;;;;19.81;40.32;97150.22;6371439;28;19966;-64
2022/04/27 09:09:43;;;;;;;;;;;;;;;19.36;41.36;97146.50;6371084;28;19923;-63
2022/04/27 09:12:55;;;;;;;;;;;;;;;19.50;40.65;97147.84;6371617;28;19924;-64
2022/04/27 09:16:00;;;;;;;;;;;;;;;19.14;41.12;97142.41;6370509;28;20402;-64
2022/04/27 09:22:24;;;;;;;;;;;;;;;18.64;41.24;97129.31;6371045;28;19930;-65
2022/04/27 09:25:32;;;;;;;;;;;;;;;18.69;41.84;97129.75;6370617;28;19923;-64
2022/04/27 09:28:33;;;;;;;;;;;;;;;18.71;40.73;97125.13;6370377;28;19923;-65
2022/04/27 09:31:37;;;;;;;;;;;;;;;18.59;41.58;97126.25;6370981;28;20021;-64
2022/04/27 09:34:45;;;;;;;;;;;;;;;18.57;41.74;97122.88;6370865;28;19927;-64
2022/04/27 09:37:49;;;;;;;;;;;;;;;18.68;41.13;97130.72;6370008;28;20012;-64
2022/04/27 09:40:56;;;;;;;;;;;;;;;18.54;41.43;97131.16;6370752;28;19934;-64
2022/04/27 09:44:00;;;;;;;;;;;;;;;18.48;41.11;97135.22;6353108;28;20428;-65
2022/04/27 09:47:03;;;;;;;;;;;;;;;18.40;41.24;97127.97;6370900;27;19931;-64
2022/04/27 09:50:04;;;;;;;;;;;;;;;18.43;41.34;97120.66;6375075;27;19923;-65
2022/04/27 09:53:08;;;;;;;;;;;;;;;18.29;41.79;97120.13;6356915;27;19923;-64
2022/04/27 09:56:12;;;;;;;;;;;;;;;18.26;41.90;97117.75;6375482;27;19933;-65
2022/04/27 09:59:14;;;;;;;;;;;;;;;18.40;41.80;97109.31;6375440;27;19930;-65
2022/04/27 10:02:22;;;;;;;;;;;;;;;18.73;41.29;97107.13;6375298;27;20064;-65
2022/04/27 10:05:23;;;;;;;;;;;;;;;19.27;40.52;97099.38;6375041;27;19924;-64
2022/04/27 10:08:28;;;;;;;;;;;;;;;20.33;38.62;97094.31;6374594;27;19923;-64
2022/04/27 10:11:36;;;;;;;;;;;;;;;22.27;35.14;97082.94;6375112;27;19923;-65
2022/04/27 10:14:38;;;;;;;;;;;;;;;24.06;32.89;97081.53;6374963;27;19923;-65
2022/04/27 10:17:45;;;;;;;;;;;;;;;27.03;28.73;97084.59;6375114;27;19930;-67
2022/04/27 10:20:51;;;;;;;;;;;;;;;28.05;26.28;97069.47;6373299;27;19924;-65
2022/04/27 10:23:57;;;;;;;;;;;;;;;27.58;27.28;97070.38;6374816;27;19976;-65
2022/04/27 10:27:15;;;;;;;;;;;;;;;28.53;26.73;97061.22;6374941;27;19923;-65
2022/04/27 10:30:17;;;;;;;;;;;;;;;30.53;24.73;97060.50;6374345;27;19954;-65
2022/04/27 10:33:51;;;;;;;;;;;;;;;31.28;23.64;97069.41;6374341;27;19930;-65
2022/04/27 10:36:55;;;;;;;;;;;;;;;30.44;25.30;97062.66;6317954;27;19930;-66
2022/04/27 10:39:56;;;;;;;;;;;;;;;29.38;25.94;97055.06;6373693;27;19957;-64
2022/04/27 10:43:05;;;;;;;;;;;;;;;28.16;25.90;97041.81;6374301;27;20416;-65
2022/04/27 10:46:26;;;;;;;;;;;;;;;27.29;26.66;97043.44;6373897;27;19923;-65
2022/04/27 10:49:28;;;;;;;;;;;;;;;26.97;26.36;97039.50;6373248;27;19955;-64
2022/04/27 10:52:41;;;;;;;;;;;;;;;26.52;27.25;97035.47;6374394;27;19932;-66
2022/04/27 10:55:48;;;;;;;;;;;;;;;25.77;29.07;97027.69;6374390;27;19923;-67
2022/04/27 10:58:52;;;;;;;;;;;;;;;25.66;29.25;97024.66;6374134;27;19923;-64
2022/04/27 11:01:53;;;;;;;;;;;;;;;27.20;27.58;97033.81;6373375;27;19923;-65
2022/04/27 11:04:54;;;;;;;;;;;;;;;28.54;24.51;97025.03;6373257;27;19924;-66
2022/04/27 11:08:15;;;;;;;;;;;;;;;29.48;24.75;97020.22;6355314;27;19930;-65
2022/04/27 11:11:19;;;;;;;;;;;;;;;29.65;24.58;97020.56;6373245;27;19929;-65
2022/04/27 11:14:22;;;;;;;;;;;;;;;28.58;24.78;97012.72;6373686;27;19923;-64
2022/04/27 11:17:28;;;;;;;;;;;;;;;27.64;27.20;97013.63;6373012;27;19923;-65
2022/04/27 11:20:34;;;;;;;;;;;;;;;26.71;27.56;97023.16;6355735;27;19927;-64
2022/04/27 11:23:35;;;;;;;;;;;;;;;26.05;28.16;97012.66;6372445;27;19923;-65
2022/04/27 11:26:46;;;;;;;;;;;;;;;25.70;28.57;97009.78;6373487;27;19929;-64
2022/04/27 11:29:52;;;;;;;;;;;;;;;26.02;28.35;97007.66;6373730;27;19927;-64
2022/04/27 11:32:56;;;;;;;;;;;;;;;26.31;27.86;97006.63;6372074;27;19930;-65
2022/04/27 11:35:57;;;;;;;;;;;;;;;26.64;27.25;97007.75;6372734;27;20388;-64
2022/04/27 11:38:58;;;;;;;;;;;;;;;27.31;26.09;97016.22;6372601;27;19934;-65
2022/04/27 11:42:00;;;;;;;;;;;;;;;28.09;25.52;97005.84;6372796;27;19924;-66
2022/04/27 11:45:04;;;;;;;;;;;;;;;28.24;25.46;97002.09;6372437;27;19923;-66
2022/04/27 11:48:08;;;;;;;;;;;;;;;28.07;26.07;96999.78;6372261;27;19950;-65
2022/04/27 11:51:09;;;;;;;;;;;;;;;28.84;24.97;96997.47;6372633;27;19924;-65
2022/04/27 11:54:10;;;;;;;;;;;;;;;29.83;24.17;96993.53;6372317;27;20292;-65
2022/04/27 11:57:19;;;;;;;;;;;;;;;29.77;24.04;96989.00;6371726;27;19946;-65
2022/04/27 12:00:23;;;;;;;;;;;;;;;29.04;24.81;96992.03;6372582;27;19923;-64
2022/04/27 12:03:27;;;;;;;;;;;;;;;28.56;25.60;96984.19;6353155;27;19923;-64
2022/04/27 12:06:30;;;;;;;;;;;;;;;28.63;25.29;96988.56;6372451;27;19980;-64
2022/04/27 12:09:34;;;;;;;;;;;;;;;28.98;25.11;96988.25;6372067;27;19923;-65
2022/04/27 12:12:38;;;;;;;;;;;;;;;29.54;24.30;96987.63;6370732;27;19931;-65
2022/04/27 12:15:45;;;;;;;;;;;;;;;30.37;23.75;96986.69;6371358;27;20349;-64
2022/04/27 12:18:53;;;;;;;;;;;;;;;30.94;23.16;96993.91;6370737;27;19923;-65
2022/04/27 12:22:15;;;;;;;;;;;;;;;31.18;23.17;96987.56;6371451;27;19924;-65
2022/04/27 12:25:18;;;;;;;;;;;;;;;31.12;21.98;96990.38;6370960;27;20278;-64
2022/04/27 12:28:20;;;;;;;;;;;;;;;30.38;22.33;96988.38;6370822;27;19923;-64
2022/04/27 12:31:25;;;;;;;;;;;;;;;29.70;23.26;96985.50;6352852;27;19924;-65
2022/04/27 12:37:49;;;;;;;;;;;;;;;27.72;24.01;96972.91;6371625;27;19923;-65
2022/04/27 12:40:54;;;;;;;;;;;;;;;26.97;24.42;96963.06;6371221;27;19930;-64
2022/04/27 12:44:01;;;;;;;;;;;;;;;26.05;25.68;96966.81;6371345;27;20296;-64
2022/04/27 12:47:03;;;;;;;;;;;;;;;25.85;25.67;96972.84;6352981;27;19935;-65
2022/04/27 12:50:05;;;;;;;;;;;;;;;25.39;26.10;96965.09;6371276;27;19930;-64
2022/04/27 12:53:09;;;;;;;;;;;;;;;24.73;27.01;96950.81;6353635;27;20305;-64
2022/04/27 12:56:12;;;;;;;;;;;;;;;24.70;26.78;96948.50;6352261;27;19931;-64
2022/04/27 12:59:16;;;;;;;;;;;;;;;24.48;26.96;96951.06;6371469;27;19923;-64
2022/04/27 13:02:19;;;;;;;;;;;;;;;24.46;27.23;96939.69;6370521;28;19923;-64
2022/04/27 13:05:21;;;;;;;;;;;;;;;24.75;26.33;96940.69;6371249;28;19930;-65
2022/04/27 13:08:27;;;;;;;;;;;;;;;24.94;25.45;96945.50;6371012;28;19924;-64
2022/04/27 13:14:50;;;;;;;;;;;;;;;24.95;25.03;96936.41;6371072;28;19931;-64
2022/04/27 13:17:53;;;;;;;;;;;;;;;24.84;25.18;96928.78;6370903;28;19927;-65
2022/04/27 13:20:57;;;;;;;;;;;;;;;24.72;25.40;96930.31;6370979;28;19923;-65
2022/04/27 13:24:01;;;;;;;;;;;;;;;24.83;25.31;96927.13;6373540;27;20312;-65
2022/04/27 13:27:02;;;;;;;;;;;;;;;24.93;24.94;96934.91;6376181;27;19924;-65
2022/04/27 13:30:09;;;;;;;;;;;;;;;24.67;25.07;96911.19;6375843;27;19927;-65
2022/04/27 13:33:11;;;;;;;;;;;;;;;24.52;25.32;96920.13;6375360;27;20259;-65
2022/04/27 13:36:14;;;;;;;;;;;;;;;24.31;25.36;96907.34;6375740;27;19923;-65
2022/04/27 13:39:20;;;;;;;;;;;;;;;24.16;25.64;96910.03;6375982;27;19923;-64
2022/04/27 13:42:21;;;;;;;;;;;;;;;24.23;25.68;96903.91;6374708;27;19935;-64
2022/04/27 13:45:22;;;;;;;;;;;;;;;24.12;25.61;96903.38;6374771;27;20084;-65
2022/04/27 13:48:26;;;;;;;;;;;;;;;24.01;26.01;96906.50;6375711;27;20391;-66
2022/04/27 13:51:29;;;;;;;;;;;;;;;23.98;25.87;96933.75;6375418;27;19923;-66
2022/04/27 13:54:30;;;;;;;;;;;;;;;23.88;25.88;96922.41;6374262;27;20000;-65
2022/04/27 13:57:31;;;;;;;;;;;;;;;23.77;26.37;96926.38;6375285;27;19923;-65
2022/04/27 14:00:33;;;;;;;;;;;;;;;23.61;26.58;96916.59;6374266;27;19945;-65
2022/04/27 14:03:37;;;;;;;;;;;;;;;23.39;26.87;96918.25;6375204;27;19924;-66
2022/04/27 14:06:38;;;;;;;;;;;;;;;23.30;27.24;96925.53;6374680;27;19928;-64
2022/04/27 14:09:41;;;;;;;;;;;;;;;23.18;27.48;96928.78;6375093;27;19923;-66
2022/04/27 14:19:24;;;;;;;;;;;;;;;23.08;27.33;96916.44;6374230;27;20317;-65
2022/04/27 14:22:26;;;;;;;;;;;;;;;22.89;27.62;96918.69;6374234;27;20022;-65
2022/04/27 14:25:27;;;;;;;;;;;;;;;22.80;27.91;96924.09;6373424;27;20434;-65
2022/04/27 14:28:29;;;;;;;;;;;;;;;22.77;28.12;96919.09;6374288;27;19966;-64
2022/04/27 14:31:32;;;;;;;;;;;;;;;22.61;28.42;96919.16;6373849;27;20328;-65
2022/04/27 14:34:35;;;;;;;;;;;;;;;22.45;28.55;96921.88;6373615;27;19923;-66
2022/04/27 14:37:37;;;;;;;;;;;;;;;22.28;29.08;96919.28;6373622;27;19924;-65
2022/04/27 14:40:46;;;;;;;;;;;;;;;22.10;29.16;96915.91;6355456;27;20400;-66
2022/04/27 14:43:47;;;;;;;;;;;;;;;22.06;29.36;96917.28;6373515;27;20281;-65
2022/04/27 14:46:50;;;;;;;;;;;;;;;22.06;29.49;96909.25;6373795;27;20400;-66
2022/04/27 14:49:54;;;;;;;;;;;;;;;22.11;29.70;96914.94;6374239;27;19924;-65
2022/04/27 14:52:55;;;;;;;;;;;;;;;21.84;29.99;96927.69;6373884;27;19923;-65
2022/04/27 14:55:56;;;;;;;;;;;;;;;21.85;29.97;96918.63;6372835;27;19923;-64
2022/04/27 14:59:00;;;;;;;;;;;;;;;21.64;30.51;96921.00;6373536;27;19930;-65
2022/04/27 15:02:01;;;;;;;;;;;;;;;21.51;30.61;96927.69;6373420;27;20389;-66
2022/04/27 15:05:02;;;;;;;;;;;;;;;21.40;30.70;96925.34;6354609;27;20022;-65
2022/04/27 15:08:05;;;;;;;;;;;;;;;21.31;30.82;96931.63;6372372;27;20055;-66
2022/04/27 15:11:08;;;;;;;;;;;;;;;21.08;31.14;96942.13;6373876;27;20392;-65
2022/04/27 15:14:09;;;;;;;;;;;;;;;21.14;31.09;96940.66;6373088;27;19925;-65
2022/04/27 15:17:12;;;;;;;;;;;;;;;20.92;31.40;96937.59;6372615;27;20011;-65
2022/04/27 15:23:33;;;;;;;;;;;;;;;20.75;31.70;96941.19;6372224;27;20299;-64
2022/04/27 15:30:00;;;;;;;;;;;;;;;20.52;32.20;96947.09;6373228;27;20084;-64
2022/04/27 15:33:06;;;;;;;;;;;;;;;20.57;32.44;96950.13;6372384;27;19923;-65
2022/04/27 15:36:09;;;;;;;;;;;;;;;20.60;32.22;96949.81;6372293;27;20291;-66
2022/04/27 15:39:11;;;;;;;;;;;;;;;20.62;32.15;96952.34;6372339;27;19938;-65
2022/04/27 15:42:12;;;;;;;;;;;;;;;20.56;32.14;96948.47;6371643;27;19923;-66
2022/04/27 15:45:14;;;;;;;;;;;;;;;20.59;32.00;96958.84;6353685;27;19934;-65
2022/04/27 15:48:15;;;;;;;;;;;;;;;20.46;32.18;96950.38;6371854;27;20471;-65
2022/04/27 15:51:16;;;;;;;;;;;;;;;20.45;32.01;96954.06;6372059;27;20413;-65
2022/04/27 15:54:17;;;;;;;;;;;;;;;20.44;32.35;96955.06;6370208;27;19924;-65
2022/04/27 15:57:23;;;;;;;;;;;;;;;20.30;32.42;96963.69;6372445;27;20295;-66
2022/04/27 16:00:30;;;;;;;;;;;;;;;20.23;32.76;96962.63;6372221;27;20010;-65
2022/04/27 16:03:36;;;;;;;;;;;;;;;20.17;32.86;96964.94;6372183;27;19923;-65
2022/04/27 16:06:38;;;;;;;;;;;;;;;20.10;32.89;96960.38;6371636;27;19930;-64
2022/04/27 16:09:39;;;;;;;;;;;;;;;19.95;33.50;96970.78;6371413;27;20521;-66
2022/04/27 16:12:44;;;;;;;;;;;;;;;19.70;33.78;96967.06;6372292;27;19924;-65
2022/04/27 16:15:45;;;;;;;;;;;;;;;19.71;33.73;96964.25;6372258;27;20316;-65
2022/04/27 16:18:47;;;;;;;;;;;;;;;19.61;34.03;96962.63;6370938;27;19930;-65
2022/04/27 16:25:08;;;;;;;;;;;;;;;19.58;33.99;96969.13;6371090;27;20383;-64
2022/04/27 16:28:10;;;;;;;;;;;;;;;19.39;34.55;96974.59;6352056;27;19923;-66
2022/04/27 16:31:11;;;;;;;;;;;;;;;19.25;34.88;96978.66;6371679;27;19923;-64
2022/04/27 16:34:12;;;;;;;;;;;;;;;19.07;35.46;96971.44;6371027;27;19924;-67
2022/04/27 16:37:14;;;;;;;;;;;;;;;18.89;35.98;96983.09;6370530;27;19959;-65
2022/04/27 16:40:16;;;;;;;;;;;;;;;18.79;36.12;96981.28;6371351;27;20441;-66
2022/04/27 16:43:17;;;;;;;;;;;;;;;18.51;36.57;96984.88;6370850;27;19923;-65